Map

Track Data

SID SEASON NUMBER BASIN SUBBASIN NAME ISO_TIME NATURE LAT LON WMO_WIND WMO_PRES WMO_AGENCY TRACK_TYPE DIST2LAND LANDFALL IFLAG USA_AGENCY USA_ATCF_ID USA_LAT USA_LON USA_RECORD USA_STATUS USA_WIND USA_PRES USA_SSHS USA_R34_NE USA_R34_SE USA_R34_SW USA_R34_NW USA_R50_NE USA_R50_SE USA_R50_SW USA_R50_NW USA_R64_NE USA_R64_SE USA_R64_SW USA_R64_NW USA_POCI USA_ROCI USA_RMW USA_EYE TOKYO_LAT TOKYO_LON TOKYO_GRADE TOKYO_WIND TOKYO_PRES TOKYO_R50_DIR TOKYO_R50_LONG TOKYO_R50_SHORT TOKYO_R30_DIR TOKYO_R30_LONG TOKYO_R30_SHORT TOKYO_LAND CMA_LAT CMA_LON CMA_CAT CMA_WIND CMA_PRES HKO_LAT HKO_LON HKO_CAT HKO_WIND HKO_PRES NEWDELHI_LAT NEWDELHI_LON NEWDELHI_GRADE NEWDELHI_WIND NEWDELHI_PRES NEWDELHI_CI NEWDELHI_DP NEWDELHI_POCI REUNION_LAT REUNION_LON REUNION_TYPE REUNION_WIND REUNION_PRES REUNION_TNUM REUNION_CI REUNION_RMW REUNION_R34_NE REUNION_R34_SE REUNION_R34_SW REUNION_R34_NW REUNION_R50_NE REUNION_R50_SE REUNION_R50_SW REUNION_R50_NW REUNION_R64_NE REUNION_R64_SE REUNION_R64_SW REUNION_R64_NW BOM_LAT BOM_LON BOM_TYPE BOM_WIND BOM_PRES BOM_TNUM BOM_CI BOM_RMW BOM_R34_NE BOM_R34_SE BOM_R34_SW BOM_R34_NW BOM_R50_NE BOM_R50_SE BOM_R50_SW BOM_R50_NW BOM_R64_NE BOM_R64_SE BOM_R64_SW BOM_R64_NW BOM_ROCI BOM_POCI BOM_EYE BOM_POS_METHOD BOM_PRES_METHOD NADI_LAT NADI_LON NADI_CAT NADI_WIND NADI_PRES WELLINGTON_LAT WELLINGTON_LON WELLINGTON_WIND WELLINGTON_PRES DS824_LAT DS824_LON DS824_STAGE DS824_WIND DS824_PRES TD9636_LAT TD9636_LON TD9636_STAGE TD9636_WIND TD9636_PRES TD9635_LAT TD9635_LON TD9635_WIND TD9635_PRES TD9635_ROCI NEUMANN_LAT NEUMANN_LON NEUMANN_CLASS NEUMANN_WIND NEUMANN_PRES MLC_LAT MLC_LON MLC_CLASS MLC_WIND MLC_PRES USA_GUST BOM_GUST BOM_GUST_PER REUNION_GUST REUNION_GUST_PER USA_SEAHGT USA_SEARAD_NE USA_SEARAD_SE USA_SEARAD_SW USA_SEARAD_NW STORM_SPEED STORM_DIR
1990348N04087 1990 121 NI BB NOT_NAMED 1990-12-13 18:00:00 NR 4.10000 86.9000 main 635 599 O_____________ jtwc_io IO041990 4.10000 86.9000 15 -1 13 355
1990348N04087 1990 121 NI BB NOT_NAMED 1990-12-13 21:00:00 NR 4.73751 86.8500 main 610 595 P_____________ IO041990 4.73751 86.8500 15 -1 17 11
1990348N04087 1990 121 NI BB NOT_NAMED 1990-12-14 00:00:00 NR 5.80000 87.2250 16 newdelhi main 601 589 O___O_________ jtwc_io IO041990 5.40000 86.8000 15 -1 7.00000 88.5000 16 1.00000 18 12
1990348N04087 1990 121 NI BB NOT_NAMED 1990-12-14 03:00:00 NR 6.48336 87.2292 main 588 585 P___P_________ IO041990 6.10000 86.7500 15 -1 7.25008 88.1876 16 13 2
1990348N04087 1990 121 NI BB NOT_NAMED 1990-12-14 06:00:00 NR 7.10000 87.2571 16 newdelhi main 596 596 O___O_________ jtwc_io IO041990 6.80000 86.7000 15 -1 7.50000 88.0000 16 1.00000 11 5
1990348N04087 1990 121 NI BB NOT_NAMED 1990-12-14 09:00:00 NR 7.61122 87.3287 main 599 599 P___P_________ IO041990 7.47248 86.6575 17 -1 7.74996 87.9999 21 10 3
1990348N04087 1990 121 NI BB NOT_NAMED 1990-12-14 12:00:00 NR 8.05000 87.3000 27 newdelhi main 608 599 O___O_________ jtwc_io IO041990 8.10000 86.6000 20 -1 8.00000 88.0000 27 1.50000 9 348
1990348N04087 1990 121 NI BB NOT_NAMED 1990-12-14 15:00:00 NR 8.46876 87.1438 main 592 585 P___P_________ IO041990 8.68749 86.5000 20 -1 8.25003 87.7875 27 9 337
1990348N04087 1990 121 NI BB NOT_NAMED 1990-12-14 18:00:00 NR 8.85000 86.9500 27 newdelhi main 590 575 O___O_________ jtwc_io IO041990 9.20000 86.4000 20 -1 8.50000 87.5000 27 1.50000 8 334
1990348N04087 1990 121 NI BB NOT_NAMED 1990-12-14 21:00:00 NR 9.18248 86.7962 main 578 572 P___P_________ IO041990 9.63748 86.3425 22 -1 8.72749 87.2499 30 7 335
1990348N04087 1990 121 NI BB NOT_NAMED 1990-12-15 00:00:00 NR 9.50000 86.6500 33 newdelhi main 579 569 O___O_________ jtwc_io IO041990 10.0000 86.3000 25 -1 9.00000 87.0000 33 2.00000 7 337
1990348N04087 1990 121 NI BB NOT_NAMED 1990-12-15 03:00:00 NR 9.85749 86.5000 main 577 572 P___P_________ IO041990 10.3300 86.2500 25 -1 9.38498 86.7500 33 8 337
1990348N04087 1990 121 NI BB NOT_NAMED 1990-12-15 06:00:00 NR 10.2000 86.3500 33 newdelhi main 582 572 O___O_________ jtwc_io IO041990 10.6000 86.2000 25 -1 9.80000 86.5000 33 2.00000 7 335
1990348N04087 1990 121 NI BB NOT_NAMED 1990-12-15 09:00:00 NR 10.4937 86.2037 main 577 571 P___P_________ IO041990 10.8150 86.1575 27 -1 10.1725 86.2500 33 6 332
1990348N04087 1990 121 NI BB NOT_NAMED 1990-12-15 12:00:00 NR 10.7500 86.0500 33 newdelhi main 581 567 O___O_________ jtwc_io IO041990 11.0000 86.1000 30 -1 10.5000 86.0000 33 2.00000 6 325
1990348N04087 1990 121 NI BB NOT_NAMED 1990-12-15 15:00:00 NR 10.9600 85.8749 main 573 560 P___P_________ IO041990 11.1925 86.0000 32 -1 10.7275 85.7498 34 6 323
1990348N04087 1990 121 NI BB NOT_NAMED 1990-12-15 18:00:00 NR 11.2000 85.7000 35 newdelhi main 566 563 O___O_________ jtwc_io IO041990 11.4000 85.9000 35 0 11.0000 85.5000 35 2.50000 7 328
1990348N04087 1990 121 NI BB NOT_NAMED 1990-12-15 21:00:00 NR 11.5375 85.5052 main 565 565 P___P_________ IO041990 11.6125 85.8350 37 0 11.4625 85.1754 35 8 339
1990348N04087 1990 121 NI BB NOT_NAMED 1990-12-16 00:00:00 NR 11.9500 85.4000 35 newdelhi main 568 564 O___O_________ jtwc_io IO041990 11.9000 85.8000 40 0 12.0000 85.0000 35 2.50000 9 0
1990348N04087 1990 121 NI BB NOT_NAMED 1990-12-16 03:00:00 NR 12.4101 85.4948 main 572 545 P___P_________ IO041990 12.3200 85.7776 40 0 12.5001 85.2120 35 10 14
1990348N04087 1990 121 NI BB NOT_NAMED 1990-12-16 06:00:00 NR 12.9000 85.6500 35 newdelhi main 552 511 O___O_________ jtwc_io IO041990 12.8000 85.8000 40 0 13.0000 85.5000 35 2.50000 10 11
1990348N04087 1990 121 NI BB NOT_NAMED 1990-12-16 09:00:00 NR 13.3862 85.6890 main 511 481 P___P_________ IO041990 13.2350 85.8775 40 0 13.5374 85.5004 40 10 6
1990348N04087 1990 121 NI BB NOT_NAMED 1990-12-16 12:00:00 NR 13.8500 85.7500 45 newdelhi main 482 468 O___O_________ jtwc_io IO041990 13.7000 86.0000 40 0 14.0000 85.5000 45 3.00000 9 16
1990348N04087 1990 121 NI BB NOT_NAMED 1990-12-16 15:00:00 NR 14.2538 85.9499 main 463 456 P___P_________ IO041990 14.2575 86.1499 42 0 14.2501 85.7499 45 9 26
1990348N04087 1990 121 NI BB NOT_NAMED 1990-12-16 18:00:00 NR 14.6500 86.1500 45 newdelhi main 456 431 O___O_________ jtwc_io IO041990 14.8000 86.3000 45 0 14.5000 86.0000 45 3.00000 9 17
1990348N04087 1990 121 NI BB NOT_NAMED 1990-12-16 21:00:00 NR 15.0700 86.2004 main 422 384 P___P_________ IO041990 15.2150 86.4002 45 0 14.9249 86.0005 45 9 6
1990348N04087 1990 121 NI BB NOT_NAMED 1990-12-17 00:00:00 NR 15.5500 86.2500 45 newdelhi main 382 346 O___O_________ jtwc_io IO041990 15.6000 86.5000 45 0 15.5000 86.0000 45 3.00000 11 10
1990348N04087 1990 121 NI BB NOT_NAMED 1990-12-17 03:00:00 NR 16.1236 86.3903 main 346 315 P___P_________ IO041990 15.9972 86.5684 45 0 16.2501 86.2121 50 13 18
1990348N04087 1990 121 NI BB NOT_NAMED 1990-12-17 06:00:00 NR 16.7500 86.6500 55 newdelhi main 315 295 O___O_________ jtwc_io IO041990 16.5000 86.8000 45 0 17.0000 86.5000 55 3.50000 14 26
1990348N04087 1990 121 NI BB NOT_NAMED 1990-12-17 09:00:00 NR 17.3710 87.0141 main 295 251 P___P_________ IO041990 17.2430 87.3889 45 0 17.4991 86.6393 55 15 34
1990348N04087 1990 121 NI BB NOT_NAMED 1990-12-17 12:00:00 NR 18.0000 87.5500 55 newdelhi main 256 238 O___O_________ jtwc_io IO041990 18.0000 88.1000 45 0 18.0000 87.0000 55 3.50000 18 44
1990348N04087 1990 121 NI BB NOT_NAMED 1990-12-17 15:00:00 NR 18.6556 88.3018 main 245 244 P___P_________ IO041990 18.5598 88.6805 45 0 18.7514 87.9231 55 19 50
1990348N04087 1990 121 NI BB NOT_NAMED 1990-12-17 18:00:00 NR 19.2500 89.1000 55 newdelhi main 257 221 O___O_________ jtwc_io IO041990 19.0000 89.2000 45 0 19.5000 89.0000 55 3.50000 18 52
1990348N04087 1990 121 NI BB NOT_NAMED 1990-12-17 21:00:00 NR 19.7273 89.7679 main 224 190 P___P_________ IO041990 19.3798 89.6729 45 0 20.0748 89.8628 50 14 53
1990348N04087 1990 121 NI BB NOT_NAMED 1990-12-18 00:00:00 NR 20.1000 90.3000 45 newdelhi main 190 159 O___O_________ jtwc_io IO041990 19.7000 90.1000 45 0 20.5000 90.5000 45 0.00000 11 49
1990348N04087 1990 121 NI BB NOT_NAMED 1990-12-18 03:00:00 NR 20.4570 90.6477 main 151 141 P___P_________ IO041990 20.0149 90.5077 40 0 20.8992 90.7877 40 8 50
1990348N04087 1990 121 NI BB NOT_NAMED 1990-12-18 06:00:00 NR 20.6000 90.9429 35 newdelhi main 141 106 O___O_________ jtwc_io IO041990 20.3000 90.9000 35 0 21.0000 91.0000 35 0.00000 7 79
1990348N04087 1990 121 NI BB NOT_NAMED 1990-12-18 09:00:00 NR 20.5843 91.3373 main 106 70 P___P_________ IO041990 20.5574 91.2927 35 0 20.6383 91.4264 31 8 87
1990348N04087 1990 121 NI BB NOT_NAMED 1990-12-18 12:00:00 NR 20.6400 91.7600 27 newdelhi main 61 15 O___O_________ jtwc_io IO041990 20.8000 91.7000 35 0 20.0000 92.0000 27 0.00000 9 57
1990348N04087 1990 121 NI BB NOT_NAMED 1990-12-18 15:00:00 NR 21.0649 92.1425 main 10 0 P_____________ IO041990 21.0649 92.1425 32 -1 10 50
1990348N04087 1990 121 NI BB NOT_NAMED 1990-12-18 18:00:00 NR 21.3000 92.6000 main 0 0 O_____________ jtwc_io IO041990 21.3000 92.6000 30 -1 9 64
1990348N04087 1990 121 NI BB NOT_NAMED 1990-12-18 21:00:00 NR 21.4702 93.0525 main 0 0 P_____________ IO041990 21.4702 93.0525 25 -1 9 70
1990348N04087 1990 121 NI BB NOT_NAMED 1990-12-19 00:00:00 NR 21.6000 93.5000 main 0 O_____________ jtwc_io IO041990 21.6000 93.5000 20 -1 9 73

About IBTrACS Database

This database is a web-friendly format of International Best Track Archive for Climate Stewardship (IBTrACS), a global best track data archive curated by NOAA dating back to 1842.

Updated: 2021-10-21